sensor_id;sensor_type;location;lat;lon;timestamp;P1;durP1;ratioP1;P2;durP2;ratioP2
64885;SDS011;51514;52.206;5.114;2023-05-16T00:00:16;14.05;;;3.72;;
64885;SDS011;51514;52.206;5.114;2023-05-16T00:02:42;15.32;;;3.53;;
64885;SDS011;51514;52.206;5.114;2023-05-16T00:05:07;23.25;;;4.35;;
64885;SDS011;51514;52.206;5.114;2023-05-16T00:07:34;16.90;;;3.50;;
64885;SDS011;51514;52.206;5.114;2023-05-16T00:10:00;14.60;;;4.05;;
64885;SDS011;51514;52.206;5.114;2023-05-16T00:12:25;14.40;;;4.03;;
64885;SDS011;51514;52.206;5.114;2023-05-16T00:14:52;13.07;;;3.97;;
64885;SDS011;51514;52.206;5.114;2023-05-16T00:17:17;13.50;;;3.67;;
64885;SDS011;51514;52.206;5.114;2023-05-16T00:19:44;19.00;;;4.03;;
64885;SDS011;51514;52.206;5.114;2023-05-16T00:22:11;12.00;;;3.45;;
64885;SDS011;51514;52.206;5.114;2023-05-16T00:24:36;12.45;;;3.72;;
64885;SDS011;51514;52.206;5.114;2023-05-16T00:27:02;17.13;;;3.40;;
64885;SDS011;51514;52.206;5.114;2023-05-16T00:29:28;15.57;;;3.30;;
64885;SDS011;51514;52.206;5.114;2023-05-16T00:31:55;17.88;;;4.00;;
64885;SDS011;51514;52.206;5.114;2023-05-16T00:34:20;14.77;;;3.50;;
64885;SDS011;51514;52.206;5.114;2023-05-16T00:36:46;16.15;;;4.47;;
64885;SDS011;51514;52.206;5.114;2023-05-16T00:39:12;12.07;;;3.20;;
64885;SDS011;51514;52.206;5.114;2023-05-16T00:41:37;15.13;;;3.33;;
64885;SDS011;51514;52.206;5.114;2023-05-16T00:44:03;15.15;;;4.18;;
64885;SDS011;51514;52.206;5.114;2023-05-16T00:46:28;16.23;;;3.28;;
64885;SDS011;51514;52.206;5.114;2023-05-16T00:48:54;17.90;;;4.68;;
64885;SDS011;51514;52.206;5.114;2023-05-16T00:51:19;14.90;;;3.45;;
64885;SDS011;51514;52.206;5.114;2023-05-16T00:53:45;13.35;;;3.70;;
64885;SDS011;51514;52.206;5.114;2023-05-16T00:56:10;16.02;;;3.17;;
64885;SDS011;51514;52.206;5.114;2023-05-16T00:58:36;18.20;;;3.95;;
64885;SDS011;51514;52.206;5.114;2023-05-16T01:01:01;12.88;;;3.67;;
64885;SDS011;51514;52.206;5.114;2023-05-16T01:03:28;14.57;;;3.95;;
64885;SDS011;51514;52.206;5.114;2023-05-16T01:05:54;9.70;;;3.90;;
64885;SDS011;51514;52.206;5.114;2023-05-16T01:08:22;23.10;;;3.80;;
64885;SDS011;51514;52.206;5.114;2023-05-16T01:16:12;17.60;;;3.47;;
64885;SDS011;51514;52.206;5.114;2023-05-16T01:21:23;12.65;;;3.17;;
64885;SDS011;51514;52.206;5.114;2023-05-16T01:24:26;14.75;;;2.97;;
64885;SDS011;51514;52.206;5.114;2023-05-16T01:26:58;13.25;;;3.08;;
64885;SDS011;51514;52.206;5.114;2023-05-16T01:29:24;14.80;;;3.92;;
64885;SDS011;51514;52.206;5.114;2023-05-16T01:31:50;10.23;;;3.53;;
64885;SDS011;51514;52.206;5.114;2023-05-16T01:34:15;18.40;;;3.28;;
64885;SDS011;51514;52.206;5.114;2023-05-16T01:36:51;15.85;;;3.85;;
64885;SDS011;51514;52.206;5.114;2023-05-16T01:39:26;16.70;;;3.53;;
64885;SDS011;51514;52.206;5.114;2023-05-16T01:44:24;16.13;;;3.38;;
64885;SDS011;51514;52.206;5.114;2023-05-16T01:46:56;15.38;;;3.28;;
64885;SDS011;51514;52.206;5.114;2023-05-16T01:51:51;14.88;;;4.15;;
64885;SDS011;51514;52.206;5.114;2023-05-16T01:54:24;18.02;;;3.75;;
64885;SDS011;51514;52.206;5.114;2023-05-16T01:56:54;16.00;;;3.50;;
64885;SDS011;51514;52.206;5.114;2023-05-16T01:59:20;16.08;;;4.03;;
64885;SDS011;51514;52.206;5.114;2023-05-16T02:01:47;16.83;;;4.07;;
64885;SDS011;51514;52.206;5.114;2023-05-16T02:04:13;15.68;;;3.10;;
64885;SDS011;51514;52.206;5.114;2023-05-16T02:06:39;17.98;;;3.38;;
64885;SDS011;51514;52.206;5.114;2023-05-16T02:09:08;13.23;;;3.38;;
64885;SDS011;51514;52.206;5.114;2023-05-16T02:11:33;14.65;;;3.80;;
64885;SDS011;51514;52.206;5.114;2023-05-16T02:13:59;12.73;;;3.75;;
64885;SDS011;51514;52.206;5.114;2023-05-16T02:16:24;14.18;;;3.67;;
64885;SDS011;51514;52.206;5.114;2023-05-16T02:18:49;9.45;;;3.15;;
64885;SDS011;51514;52.206;5.114;2023-05-16T02:21:15;12.55;;;4.32;;
64885;SDS011;51514;52.206;5.114;2023-05-16T02:23:40;20.25;;;4.35;;
64885;SDS011;51514;52.206;5.114;2023-05-16T02:26:05;17.48;;;3.80;;
64885;SDS011;51514;52.206;5.114;2023-05-16T02:28:31;18.58;;;4.20;;
64885;SDS011;51514;52.206;5.114;2023-05-16T02:30:59;11.95;;;3.17;;
64885;SDS011;51514;52.206;5.114;2023-05-16T02:33:26;11.00;;;3.75;;
64885;SDS011;51514;52.206;5.114;2023-05-16T02:35:52;15.45;;;4.05;;
64885;SDS011;51514;52.206;5.114;2023-05-16T02:38:18;10.98;;;3.50;;
64885;SDS011;51514;52.206;5.114;2023-05-16T02:40:45;12.68;;;3.00;;
64885;SDS011;51514;52.206;5.114;2023-05-16T02:43:11;12.50;;;3.45;;
64885;SDS011;51514;52.206;5.114;2023-05-16T02:45:37;16.80;;;4.15;;
64885;SDS011;51514;52.206;5.114;2023-05-16T02:48:02;10.80;;;3.63;;
64885;SDS011;51514;52.206;5.114;2023-05-16T02:50:28;14.73;;;3.20;;
64885;SDS011;51514;52.206;5.114;2023-05-16T02:52:53;10.63;;;3.00;;
64885;SDS011;51514;52.206;5.114;2023-05-16T02:55:18;11.20;;;3.13;;
64885;SDS011;51514;52.206;5.114;2023-05-16T02:57:44;10.77;;;3.47;;
64885;SDS011;51514;52.206;5.114;2023-05-16T03:00:09;9.82;;;3.67;;
64885;SDS011;51514;52.206;5.114;2023-05-16T03:02:35;11.43;;;3.28;;
64885;SDS011;51514;52.206;5.114;2023-05-16T03:05:01;17.67;;;3.63;;
64885;SDS011;51514;52.206;5.114;2023-05-16T03:07:26;13.68;;;3.50;;
64885;SDS011;51514;52.206;5.114;2023-05-16T03:09:52;15.25;;;3.65;;
64885;SDS011;51514;52.206;5.114;2023-05-16T03:12:17;9.98;;;3.03;;
64885;SDS011;51514;52.206;5.114;2023-05-16T03:14:43;17.45;;;3.50;;
64885;SDS011;51514;52.206;5.114;2023-05-16T03:17:08;18.17;;;3.90;;
64885;SDS011;51514;52.206;5.114;2023-05-16T03:19:33;16.25;;;3.25;;
64885;SDS011;51514;52.206;5.114;2023-05-16T03:21:59;17.30;;;3.70;;
64885;SDS011;51514;52.206;5.114;2023-05-16T03:24:24;18.70;;;4.18;;
64885;SDS011;51514;52.206;5.114;2023-05-16T03:26:50;12.45;;;3.33;;
64885;SDS011;51514;52.206;5.114;2023-05-16T03:29:16;13.35;;;3.05;;
64885;SDS011;51514;52.206;5.114;2023-05-16T03:31:41;15.15;;;3.33;;
64885;SDS011;51514;52.206;5.114;2023-05-16T03:34:06;17.25;;;3.90;;
64885;SDS011;51514;52.206;5.114;2023-05-16T03:36:32;17.55;;;3.20;;
64885;SDS011;51514;52.206;5.114;2023-05-16T03:38:57;13.02;;;3.55;;
64885;SDS011;51514;52.206;5.114;2023-05-16T03:41:22;13.43;;;4.10;;
64885;SDS011;51514;52.206;5.114;2023-05-16T03:43:48;11.40;;;3.25;;
64885;SDS011;51514;52.206;5.114;2023-05-16T03:46:13;14.73;;;3.80;;
64885;SDS011;51514;52.206;5.114;2023-05-16T03:48:39;11.38;;;3.33;;
64885;SDS011;51514;52.206;5.114;2023-05-16T03:51:04;16.02;;;4.55;;
64885;SDS011;51514;52.206;5.114;2023-05-16T03:53:29;12.30;;;4.13;;
64885;SDS011;51514;52.206;5.114;2023-05-16T03:55:55;14.20;;;3.80;;
64885;SDS011;51514;52.206;5.114;2023-05-16T03:58:20;13.43;;;3.80;;
64885;SDS011;51514;52.206;5.114;2023-05-16T04:00:45;17.05;;;3.50;;
64885;SDS011;51514;52.206;5.114;2023-05-16T04:03:11;14.07;;;3.75;;
64885;SDS011;51514;52.206;5.114;2023-05-16T04:05:36;15.00;;;3.28;;
64885;SDS011;51514;52.206;5.114;2023-05-16T04:08:02;14.13;;;3.30;;
64885;SDS011;51514;52.206;5.114;2023-05-16T04:10:27;8.93;;;3.40;;
64885;SDS011;51514;52.206;5.114;2023-05-16T04:12:52;13.52;;;3.38;;
64885;SDS011;51514;52.206;5.114;2023-05-16T04:15:18;9.70;;;3.20;;
64885;SDS011;51514;52.206;5.114;2023-05-16T04:17:43;13.27;;;3.88;;
64885;SDS011;51514;52.206;5.114;2023-05-16T04:20:09;10.15;;;3.28;;
64885;SDS011;51514;52.206;5.114;2023-05-16T04:22:35;11.75;;;3.50;;
64885;SDS011;51514;52.206;5.114;2023-05-16T04:25:00;17.00;;;4.03;;
64885;SDS011;51514;52.206;5.114;2023-05-16T04:27:26;12.15;;;4.10;;
64885;SDS011;51514;52.206;5.114;2023-05-16T04:29:51;13.88;;;3.25;;
64885;SDS011;51514;52.206;5.114;2023-05-16T04:32:17;13.00;;;3.42;;
64885;SDS011;51514;52.206;5.114;2023-05-16T04:34:42;14.63;;;4.47;;
64885;SDS011;51514;52.206;5.114;2023-05-16T04:37:10;11.75;;;3.20;;
64885;SDS011;51514;52.206;5.114;2023-05-16T04:39:36;13.15;;;3.25;;
64885;SDS011;51514;52.206;5.114;2023-05-16T04:42:02;13.25;;;4.47;;
64885;SDS011;51514;52.206;5.114;2023-05-16T04:44:28;12.95;;;3.72;;
64885;SDS011;51514;52.206;5.114;2023-05-16T04:46:53;14.15;;;3.30;;
64885;SDS011;51514;52.206;5.114;2023-05-16T04:49:19;16.02;;;4.07;;
64885;SDS011;51514;52.206;5.114;2023-05-16T04:51:45;19.17;;;3.88;;
64885;SDS011;51514;52.206;5.114;2023-05-16T04:54:11;16.17;;;4.18;;
64885;SDS011;51514;52.206;5.114;2023-05-16T04:56:36;13.07;;;4.10;;
64885;SDS011;51514;52.206;5.114;2023-05-16T04:59:02;13.23;;;3.50;;
64885;SDS011;51514;52.206;5.114;2023-05-16T05:01:28;8.30;;;3.90;;
64885;SDS011;51514;52.206;5.114;2023-05-16T05:03:53;10.23;;;3.78;;
64885;SDS011;51514;52.206;5.114;2023-05-16T05:06:19;20.08;;;4.03;;
64885;SDS011;51514;52.206;5.114;2023-05-16T05:08:44;14.95;;;3.88;;
64885;SDS011;51514;52.206;5.114;2023-05-16T05:11:09;13.18;;;3.33;;
64885;SDS011;51514;52.206;5.114;2023-05-16T05:13:35;13.65;;;3.80;;
64885;SDS011;51514;52.206;5.114;2023-05-16T05:16:00;10.82;;;3.85;;
64885;SDS011;51514;52.206;5.114;2023-05-16T05:18:28;11.45;;;3.20;;
64885;SDS011;51514;52.206;5.114;2023-05-16T05:20:54;12.20;;;3.25;;
64885;SDS011;51514;52.206;5.114;2023-05-16T05:23:19;10.95;;;3.45;;
64885;SDS011;51514;52.206;5.114;2023-05-16T05:25:45;14.65;;;4.63;;
64885;SDS011;51514;52.206;5.114;2023-05-16T05:28:10;12.90;;;4.65;;
64885;SDS011;51514;52.206;5.114;2023-05-16T05:30:35;13.43;;;3.70;;
64885;SDS011;51514;52.206;5.114;2023-05-16T05:33:01;12.23;;;3.15;;
64885;SDS011;51514;52.206;5.114;2023-05-16T05:35:26;11.70;;;3.22;;
64885;SDS011;51514;52.206;5.114;2023-05-16T05:37:51;14.80;;;3.10;;
64885;SDS011;51514;52.206;5.114;2023-05-16T05:40:17;10.05;;;3.17;;
64885;SDS011;51514;52.206;5.114;2023-05-16T05:42:42;14.05;;;3.83;;
64885;SDS011;51514;52.206;5.114;2023-05-16T05:45:07;13.32;;;3.33;;
64885;SDS011;51514;52.206;5.114;2023-05-16T05:47:33;13.85;;;3.28;;
64885;SDS011;51514;52.206;5.114;2023-05-16T05:49:58;10.75;;;3.45;;
64885;SDS011;51514;52.206;5.114;2023-05-16T05:52:24;12.18;;;3.15;;
64885;SDS011;51514;52.206;5.114;2023-05-16T05:54:52;7.43;;;2.53;;
64885;SDS011;51514;52.206;5.114;2023-05-16T05:57:17;13.45;;;3.13;;
64885;SDS011;51514;52.206;5.114;2023-05-16T05:59:43;11.50;;;3.50;;
64885;SDS011;51514;52.206;5.114;2023-05-16T06:02:08;10.23;;;3.00;;
64885;SDS011;51514;52.206;5.114;2023-05-16T06:04:33;12.57;;;3.22;;
64885;SDS011;51514;52.206;5.114;2023-05-16T06:06:59;9.60;;;2.80;;
64885;SDS011;51514;52.206;5.114;2023-05-16T06:09:24;12.93;;;2.80;;
64885;SDS011;51514;52.206;5.114;2023-05-16T06:11:49;12.80;;;3.35;;
64885;SDS011;51514;52.206;5.114;2023-05-16T06:14:15;11.57;;;2.97;;
64885;SDS011;51514;52.206;5.114;2023-05-16T06:16:40;9.13;;;2.60;;
64885;SDS011;51514;52.206;5.114;2023-05-16T06:19:06;7.50;;;2.58;;
64885;SDS011;51514;52.206;5.114;2023-05-16T06:21:31;10.20;;;3.25;;
64885;SDS011;51514;52.206;5.114;2023-05-16T06:23:57;6.78;;;2.45;;
64885;SDS011;51514;52.206;5.114;2023-05-16T06:26:23;13.73;;;2.45;;
64885;SDS011;51514;52.206;5.114;2023-05-16T06:28:49;7.80;;;2.38;;
64885;SDS011;51514;52.206;5.114;2023-05-16T06:31:14;12.60;;;2.80;;
64885;SDS011;51514;52.206;5.114;2023-05-16T06:33:39;10.23;;;2.25;;
64885;SDS011;51514;52.206;5.114;2023-05-16T06:36:05;7.38;;;2.92;;
64885;SDS011;51514;52.206;5.114;2023-05-16T06:38:30;14.82;;;2.65;;
64885;SDS011;51514;52.206;5.114;2023-05-16T06:40:56;8.70;;;2.60;;
64885;SDS011;51514;52.206;5.114;2023-05-16T06:43:21;6.40;;;2.78;;
64885;SDS011;51514;52.206;5.114;2023-05-16T06:45:47;10.00;;;2.22;;
64885;SDS011;51514;52.206;5.114;2023-05-16T06:48:12;6.32;;;2.65;;
64885;SDS011;51514;52.206;5.114;2023-05-16T06:50:39;5.13;;;1.95;;
64885;SDS011;51514;52.206;5.114;2023-05-16T06:53:04;5.57;;;2.53;;
64885;SDS011;51514;52.206;5.114;2023-05-16T06:55:31;9.77;;;2.17;;
64885;SDS011;51514;52.206;5.114;2023-05-16T06:57:56;6.45;;;2.92;;
64885;SDS011;51514;52.206;5.114;2023-05-16T07:00:22;9.48;;;2.47;;
64885;SDS011;51514;52.206;5.114;2023-05-16T07:02:47;8.80;;;3.13;;
64885;SDS011;51514;52.206;5.114;2023-05-16T07:05:12;8.30;;;2.38;;
64885;SDS011;51514;52.206;5.114;2023-05-16T07:07:38;6.25;;;2.30;;
64885;SDS011;51514;52.206;5.114;2023-05-16T07:10:03;11.15;;;3.28;;
64885;SDS011;51514;52.206;5.114;2023-05-16T07:12:28;9.10;;;1.95;;
64885;SDS011;51514;52.206;5.114;2023-05-16T07:14:54;10.25;;;2.05;;
64885;SDS011;51514;52.206;5.114;2023-05-16T07:17:19;8.52;;;2.15;;
64885;SDS011;51514;52.206;5.114;2023-05-16T07:19:45;9.18;;;2.20;;
64885;SDS011;51514;52.206;5.114;2023-05-16T07:22:10;7.65;;;2.42;;
64885;SDS011;51514;52.206;5.114;2023-05-16T07:24:36;10.45;;;2.78;;
64885;SDS011;51514;52.206;5.114;2023-05-16T07:27:01;11.13;;;2.72;;
64885;SDS011;51514;52.206;5.114;2023-05-16T07:29:27;12.43;;;2.45;;
64885;SDS011;51514;52.206;5.114;2023-05-16T07:31:52;8.85;;;2.40;;
64885;SDS011;51514;52.206;5.114;2023-05-16T07:34:17;8.80;;;2.22;;
64885;SDS011;51514;52.206;5.114;2023-05-16T07:36:43;10.35;;;2.25;;
64885;SDS011;51514;52.206;5.114;2023-05-16T07:39:08;5.70;;;1.95;;
64885;SDS011;51514;52.206;5.114;2023-05-16T07:41:33;7.60;;;2.35;;
64885;SDS011;51514;52.206;5.114;2023-05-16T07:43:59;10.60;;;2.30;;
64885;SDS011;51514;52.206;5.114;2023-05-16T07:46:24;8.95;;;2.08;;
64885;SDS011;51514;52.206;5.114;2023-05-16T07:48:50;4.30;;;1.95;;
64885;SDS011;51514;52.206;5.114;2023-05-16T07:51:15;8.63;;;1.92;;
64885;SDS011;51514;52.206;5.114;2023-05-16T07:53:41;8.00;;;1.92;;
64885;SDS011;51514;52.206;5.114;2023-05-16T07:56:06;4.80;;;1.88;;
64885;SDS011;51514;52.206;5.114;2023-05-16T07:58:32;6.68;;;2.08;;
64885;SDS011;51514;52.206;5.114;2023-05-16T08:00:58;5.95;;;2.20;;
64885;SDS011;51514;52.206;5.114;2023-05-16T08:03:23;8.77;;;2.40;;
64885;SDS011;51514;52.206;5.114;2023-05-16T08:05:48;5.63;;;2.00;;
64885;SDS011;51514;52.206;5.114;2023-05-16T08:08:14;10.35;;;2.42;;
64885;SDS011;51514;52.206;5.114;2023-05-16T08:10:39;6.85;;;2.00;;
64885;SDS011;51514;52.206;5.114;2023-05-16T08:13:04;9.00;;;2.10;;
64885;SDS011;51514;52.206;5.114;2023-05-16T08:15:30;5.63;;;2.35;;
64885;SDS011;51514;52.206;5.114;2023-05-16T08:17:56;4.30;;;1.63;;
64885;SDS011;51514;52.206;5.114;2023-05-16T08:20:23;7.15;;;2.08;;
64885;SDS011;51514;52.206;5.114;2023-05-16T08:22:49;6.03;;;1.90;;
64885;SDS011;51514;52.206;5.114;2023-05-16T08:25:14;5.60;;;2.00;;
64885;SDS011;51514;52.206;5.114;2023-05-16T08:27:40;6.97;;;2.22;;
64885;SDS011;51514;52.206;5.114;2023-05-16T08:30:05;6.13;;;2.28;;
64885;SDS011;51514;52.206;5.114;2023-05-16T08:32:31;10.75;;;2.63;;
64885;SDS011;51514;52.206;5.114;2023-05-16T08:34:56;6.65;;;2.42;;
64885;SDS011;51514;52.206;5.114;2023-05-16T08:37:22;4.13;;;1.60;;
64885;SDS011;51514;52.206;5.114;2023-05-16T08:39:47;6.40;;;2.13;;
64885;SDS011;51514;52.206;5.114;2023-05-16T08:42:12;8.13;;;2.28;;
64885;SDS011;51514;52.206;5.114;2023-05-16T08:44:38;8.68;;;2.22;;
64885;SDS011;51514;52.206;5.114;2023-05-16T08:47:06;10.88;;;2.10;;
64885;SDS011;51514;52.206;5.114;2023-05-16T08:49:41;8.05;;;1.85;;
64885;SDS011;51514;52.206;5.114;2023-05-16T08:52:08;6.57;;;2.42;;
64885;SDS011;51514;52.206;5.114;2023-05-16T08:54:35;6.30;;;1.88;;
64885;SDS011;51514;52.206;5.114;2023-05-16T08:57:01;7.18;;;2.05;;
64885;SDS011;51514;52.206;5.114;2023-05-16T08:59:27;6.82;;;2.03;;
64885;SDS011;51514;52.206;5.114;2023-05-16T09:01:53;7.50;;;2.45;;
64885;SDS011;51514;52.206;5.114;2023-05-16T09:04:19;8.13;;;2.05;;
64885;SDS011;51514;52.206;5.114;2023-05-16T09:06:45;8.93;;;2.15;;
64885;SDS011;51514;52.206;5.114;2023-05-16T09:09:12;5.90;;;1.92;;
64885;SDS011;51514;52.206;5.114;2023-05-16T09:11:37;12.27;;;2.72;;
64885;SDS011;51514;52.206;5.114;2023-05-16T09:14:03;5.78;;;2.15;;
64885;SDS011;51514;52.206;5.114;2023-05-16T09:16:31;7.40;;;2.00;;
64885;SDS011;51514;52.206;5.114;2023-05-16T09:18:57;9.60;;;2.22;;
64885;SDS011;51514;52.206;5.114;2023-05-16T09:21:27;6.78;;;1.83;;
64885;SDS011;51514;52.206;5.114;2023-05-16T09:23:54;8.95;;;2.92;;
64885;SDS011;51514;52.206;5.114;2023-05-16T09:26:20;4.60;;;1.85;;
64885;SDS011;51514;52.206;5.114;2023-05-16T09:28:46;7.18;;;2.25;;
64885;SDS011;51514;52.206;5.114;2023-05-16T09:31:21;8.07;;;1.92;;
64885;SDS011;51514;52.206;5.114;2023-05-16T09:33:56;12.52;;;1.98;;
64885;SDS011;51514;52.206;5.114;2023-05-16T09:36:22;10.35;;;3.22;;
64885;SDS011;51514;52.206;5.114;2023-05-16T09:38:49;10.85;;;2.08;;
64885;SDS011;51514;52.206;5.114;2023-05-16T09:41:16;5.55;;;1.70;;
64885;SDS011;51514;52.206;5.114;2023-05-16T09:43:41;10.00;;;2.22;;
64885;SDS011;51514;52.206;5.114;2023-05-16T09:46:07;5.90;;;1.80;;
64885;SDS011;51514;52.206;5.114;2023-05-16T09:48:36;9.32;;;2.00;;
64885;SDS011;51514;52.206;5.114;2023-05-16T09:51:05;11.70;;;2.50;;
64885;SDS011;51514;52.206;5.114;2023-05-16T09:53:32;8.45;;;2.83;;
64885;SDS011;51514;52.206;5.114;2023-05-16T09:56:04;9.23;;;2.45;;
64885;SDS011;51514;52.206;5.114;2023-05-16T09:58:34;8.07;;;1.85;;
64885;SDS011;51514;52.206;5.114;2023-05-16T10:01:02;8.35;;;2.05;;
64885;SDS011;51514;52.206;5.114;2023-05-16T10:03:29;5.25;;;2.13;;
64885;SDS011;51514;52.206;5.114;2023-05-16T10:05:55;6.63;;;2.60;;
64885;SDS011;51514;52.206;5.114;2023-05-16T10:08:21;6.72;;;2.25;;
64885;SDS011;51514;52.206;5.114;2023-05-16T10:10:58;9.80;;;1.92;;
64885;SDS011;51514;52.206;5.114;2023-05-16T10:13:26;6.07;;;1.70;;
64885;SDS011;51514;52.206;5.114;2023-05-16T10:15:54;6.00;;;2.17;;
64885;SDS011;51514;52.206;5.114;2023-05-16T10:18:21;7.65;;;1.80;;
64885;SDS011;51514;52.206;5.114;2023-05-16T10:20:50;9.07;;;2.63;;
64885;SDS011;51514;52.206;5.114;2023-05-16T10:23:17;8.30;;;2.47;;
64885;SDS011;51514;52.206;5.114;2023-05-16T10:25:44;7.40;;;1.92;;
64885;SDS011;51514;52.206;5.114;2023-05-16T10:28:12;8.18;;;1.70;;
64885;SDS011;51514;52.206;5.114;2023-05-16T10:30:42;11.35;;;2.20;;
64885;SDS011;51514;52.206;5.114;2023-05-16T10:33:14;4.90;;;1.58;;
64885;SDS011;51514;52.206;5.114;2023-05-16T10:35:41;7.70;;;1.88;;
64885;SDS011;51514;52.206;5.114;2023-05-16T10:38:07;7.72;;;1.60;;
64885;SDS011;51514;52.206;5.114;2023-05-16T10:43:02;6.18;;;1.85;;
64885;SDS011;51514;52.206;5.114;2023-05-16T10:45:30;7.38;;;1.77;;
64885;SDS011;51514;52.206;5.114;2023-05-16T10:50:42;9.70;;;2.05;;
64885;SDS011;51514;52.206;5.114;2023-05-16T10:55:44;7.13;;;2.50;;
64885;SDS011;51514;52.206;5.114;2023-05-16T10:58:23;5.95;;;2.05;;
64885;SDS011;51514;52.206;5.114;2023-05-16T11:01:16;8.18;;;2.20;;
64885;SDS011;51514;52.206;5.114;2023-05-16T11:06:27;6.13;;;1.80;;
64885;SDS011;51514;52.206;5.114;2023-05-16T11:14:20;5.57;;;1.45;;
64885;SDS011;51514;52.206;5.114;2023-05-16T11:17:06;9.02;;;2.15;;
64885;SDS011;51514;52.206;5.114;2023-05-16T11:19:54;7.40;;;2.30;;
64885;SDS011;51514;52.206;5.114;2023-05-16T11:22:24;5.82;;;2.15;;
64885;SDS011;51514;52.206;5.114;2023-05-16T11:30:00;7.47;;;2.60;;
64885;SDS011;51514;52.206;5.114;2023-05-16T11:35:01;7.22;;;2.15;;
64885;SDS011;51514;52.206;5.114;2023-05-16T11:37:28;6.45;;;2.45;;
64885;SDS011;51514;52.206;5.114;2023-05-16T11:39:57;2.63;;;1.50;;
64885;SDS011;51514;52.206;5.114;2023-05-16T11:42:37;6.53;;;2.03;;
64885;SDS011;51514;52.206;5.114;2023-05-16T11:45:16;5.57;;;1.52;;
64885;SDS011;51514;52.206;5.114;2023-05-16T11:47:43;8.40;;;2.25;;
64885;SDS011;51514;52.206;5.114;2023-05-16T11:50:10;5.57;;;2.13;;
64885;SDS011;51514;52.206;5.114;2023-05-16T11:52:37;7.28;;;2.20;;
64885;SDS011;51514;52.206;5.114;2023-05-16T11:55:03;7.45;;;2.13;;
64885;SDS011;51514;52.206;5.114;2023-05-16T11:57:31;8.02;;;2.13;;
64885;SDS011;51514;52.206;5.114;2023-05-16T12:00:30;6.78;;;2.35;;
64885;SDS011;51514;52.206;5.114;2023-05-16T12:02:50;9.95;;;2.67;;
64885;SDS011;51514;52.206;5.114;2023-05-16T12:05:17;5.15;;;2.33;;
64885;SDS011;51514;52.206;5.114;2023-05-16T12:07:44;6.88;;;1.73;;
64885;SDS011;51514;52.206;5.114;2023-05-16T12:10:11;7.75;;;2.17;;
64885;SDS011;51514;52.206;5.114;2023-05-16T12:12:39;9.95;;;2.10;;
64885;SDS011;51514;52.206;5.114;2023-05-16T12:15:06;8.23;;;2.20;;
64885;SDS011;51514;52.206;5.114;2023-05-16T12:17:33;9.93;;;2.08;;
64885;SDS011;51514;52.206;5.114;2023-05-16T12:19:59;7.18;;;2.25;;
64885;SDS011;51514;52.206;5.114;2023-05-16T12:22:25;7.10;;;2.55;;
64885;SDS011;51514;52.206;5.114;2023-05-16T12:24:51;7.63;;;2.10;;
64885;SDS011;51514;52.206;5.114;2023-05-16T12:27:25;8.45;;;3.17;;
64885;SDS011;51514;52.206;5.114;2023-05-16T12:29:51;9.60;;;2.25;;
64885;SDS011;51514;52.206;5.114;2023-05-16T12:32:18;13.90;;;2.30;;
64885;SDS011;51514;52.206;5.114;2023-05-16T12:34:50;7.75;;;1.73;;
64885;SDS011;51514;52.206;5.114;2023-05-16T12:37:16;7.28;;;1.90;;
64885;SDS011;51514;52.206;5.114;2023-05-16T12:39:42;7.50;;;1.90;;
64885;SDS011;51514;52.206;5.114;2023-05-16T12:42:07;7.45;;;2.88;;
64885;SDS011;51514;52.206;5.114;2023-05-16T12:44:33;3.53;;;1.48;;
64885;SDS011;51514;52.206;5.114;2023-05-16T12:46:59;6.88;;;2.20;;
64885;SDS011;51514;52.206;5.114;2023-05-16T12:49:26;7.88;;;2.25;;
64885;SDS011;51514;52.206;5.114;2023-05-16T12:51:52;4.25;;;1.85;;
64885;SDS011;51514;52.206;5.114;2023-05-16T12:54:19;6.78;;;1.67;;
64885;SDS011;51514;52.206;5.114;2023-05-16T12:56:46;7.00;;;2.10;;
64885;SDS011;51514;52.206;5.114;2023-05-16T12:59:12;4.15;;;1.95;;
64885;SDS011;51514;52.206;5.114;2023-05-16T13:01:37;8.07;;;2.20;;
64885;SDS011;51514;52.206;5.114;2023-05-16T13:04:04;4.80;;;2.17;;
64885;SDS011;51514;52.206;5.114;2023-05-16T13:06:30;11.02;;;2.55;;
64885;SDS011;51514;52.206;5.114;2023-05-16T13:08:55;6.40;;;1.98;;
64885;SDS011;51514;52.206;5.114;2023-05-16T13:11:21;7.07;;;1.90;;
64885;SDS011;51514;52.206;5.114;2023-05-16T13:13:47;13.35;;;3.13;;
64885;SDS011;51514;52.206;5.114;2023-05-16T13:16:12;5.97;;;1.88;;
64885;SDS011;51514;52.206;5.114;2023-05-16T13:18:38;11.27;;;2.67;;
64885;SDS011;51514;52.206;5.114;2023-05-16T13:21:03;10.15;;;2.55;;
64885;SDS011;51514;52.206;5.114;2023-05-16T13:23:29;5.28;;;1.70;;
64885;SDS011;51514;52.206;5.114;2023-05-16T13:25:55;7.20;;;2.13;;
64885;SDS011;51514;52.206;5.114;2023-05-16T13:28:20;7.82;;;1.85;;
64885;SDS011;51514;52.206;5.114;2023-05-16T13:30:46;5.65;;;1.75;;
64885;SDS011;51514;52.206;5.114;2023-05-16T13:33:11;7.03;;;2.08;;
64885;SDS011;51514;52.206;5.114;2023-05-16T13:35:36;7.28;;;2.00;;
64885;SDS011;51514;52.206;5.114;2023-05-16T13:38:02;5.50;;;1.95;;
64885;SDS011;51514;52.206;5.114;2023-05-16T13:40:28;6.40;;;1.73;;
64885;SDS011;51514;52.206;5.114;2023-05-16T13:42:53;7.00;;;2.20;;
64885;SDS011;51514;52.206;5.114;2023-05-16T13:45:19;6.95;;;2.05;;
64885;SDS011;51514;52.206;5.114;2023-05-16T13:47:44;7.72;;;1.80;;
64885;SDS011;51514;52.206;5.114;2023-05-16T13:50:09;6.68;;;1.65;;
64885;SDS011;51514;52.206;5.114;2023-05-16T13:52:36;5.70;;;1.70;;
64885;SDS011;51514;52.206;5.114;2023-05-16T13:55:02;6.93;;;2.10;;
64885;SDS011;51514;52.206;5.114;2023-05-16T13:57:28;6.47;;;1.52;;
64885;SDS011;51514;52.206;5.114;2023-05-16T13:59:53;5.80;;;1.92;;
64885;SDS011;51514;52.206;5.114;2023-05-16T14:02:19;7.30;;;2.50;;
64885;SDS011;51514;52.206;5.114;2023-05-16T14:04:44;6.03;;;2.00;;
64885;SDS011;51514;52.206;5.114;2023-05-16T14:07:10;5.72;;;2.22;;
64885;SDS011;51514;52.206;5.114;2023-05-16T14:09:35;3.72;;;1.75;;
64885;SDS011;51514;52.206;5.114;2023-05-16T14:12:03;9.20;;;1.85;;
64885;SDS011;51514;52.206;5.114;2023-05-16T14:14:31;7.38;;;2.80;;
64885;SDS011;51514;52.206;5.114;2023-05-16T14:16:56;5.43;;;2.05;;
64885;SDS011;51514;52.206;5.114;2023-05-16T14:19:21;9.60;;;2.58;;
64885;SDS011;51514;52.206;5.114;2023-05-16T14:21:47;7.95;;;2.03;;
64885;SDS011;51514;52.206;5.114;2023-05-16T14:24:12;5.28;;;1.55;;
64885;SDS011;51514;52.206;5.114;2023-05-16T14:26:37;10.23;;;2.45;;
64885;SDS011;51514;52.206;5.114;2023-05-16T14:29:03;6.90;;;1.60;;
64885;SDS011;51514;52.206;5.114;2023-05-16T14:31:28;5.03;;;1.92;;
64885;SDS011;51514;52.206;5.114;2023-05-16T14:33:54;6.43;;;1.90;;
64885;SDS011;51514;52.206;5.114;2023-05-16T14:36:19;4.25;;;1.92;;
64885;SDS011;51514;52.206;5.114;2023-05-16T14:38:44;4.63;;;1.60;;
64885;SDS011;51514;52.206;5.114;2023-05-16T14:41:10;6.10;;;1.65;;
64885;SDS011;51514;52.206;5.114;2023-05-16T14:43:35;4.88;;;1.75;;
64885;SDS011;51514;52.206;5.114;2023-05-16T14:46:01;5.78;;;2.67;;
64885;SDS011;51514;52.206;5.114;2023-05-16T14:48:27;3.10;;;1.50;;
64885;SDS011;51514;52.206;5.114;2023-05-16T14:50:52;4.50;;;1.77;;
64885;SDS011;51514;52.206;5.114;2023-05-16T14:53:18;6.50;;;2.03;;
64885;SDS011;51514;52.206;5.114;2023-05-16T14:55:45;5.38;;;1.52;;
64885;SDS011;51514;52.206;5.114;2023-05-16T14:58:10;3.97;;;1.38;;
64885;SDS011;51514;52.206;5.114;2023-05-16T15:00:36;5.00;;;1.48;;
64885;SDS011;51514;52.206;5.114;2023-05-16T15:03:01;9.32;;;1.65;;
64885;SDS011;51514;52.206;5.114;2023-05-16T15:05:26;7.15;;;2.08;;
64885;SDS011;51514;52.206;5.114;2023-05-16T15:07:53;2.33;;;1.15;;
64885;SDS011;51514;52.206;5.114;2023-05-16T15:10:18;6.00;;;1.60;;
64885;SDS011;51514;52.206;5.114;2023-05-16T15:12:43;4.60;;;2.05;;